createdAt,value
2018-05-04T00:00:16.620Z,73.30
2018-05-04T00:02:44.771Z,72.80
2018-05-04T00:05:12.898Z,72.80
2018-05-04T00:07:41.074Z,72.60
2018-05-04T00:10:09.936Z,72.50
2018-05-04T00:12:38.851Z,72.40
2018-05-04T00:15:06.990Z,72.30
2018-05-04T00:17:35.118Z,72.50
2018-05-04T00:20:03.364Z,72.50
2018-05-04T00:22:32.275Z,72.20
2018-05-04T00:25:00.392Z,72.20
2018-05-04T00:27:28.527Z,72.10
2018-05-04T00:29:56.654Z,71.80
2018-05-04T00:32:25.563Z,72.00
2018-05-04T00:34:53.689Z,72.00
2018-05-04T00:37:23.347Z,72.20
2018-05-04T00:39:51.644Z,72.20
2018-05-04T00:42:19.811Z,72.20
2018-05-04T00:44:47.966Z,72.10
2018-05-04T00:47:16.143Z,71.80
2018-05-04T00:49:44.300Z,71.50
2018-05-04T00:52:13.237Z,71.50
2018-05-04T00:54:41.352Z,71.50
2018-05-04T00:57:10.268Z,71.00
2018-05-04T00:59:38.416Z,71.00
2018-05-04T01:02:07.335Z,71.20
2018-05-04T01:04:35.492Z,71.10
2018-05-04T01:07:03.736Z,71.30
2018-05-04T01:09:31.924Z,71.30
2018-05-04T01:12:00.834Z,71.70
2018-05-04T01:14:29.139Z,71.00
2018-05-04T01:16:57.304Z,71.20
2018-05-04T01:19:25.492Z,71.10
2018-05-04T01:21:53.616Z,70.80
2018-05-04T01:24:22.510Z,71.30
2018-05-04T01:26:50.650Z,71.30
2018-05-04T01:29:18.793Z,71.20
2018-05-04T01:31:46.946Z,71.50
2018-05-04T01:34:15.173Z,71.40
2018-05-04T01:36:44.090Z,71.10
2018-05-04T01:39:12.321Z,71.00
2018-05-04T01:41:40.457Z,71.10
2018-05-04T01:44:08.619Z,71.20
2018-05-04T01:46:36.766Z,70.80
2018-05-04T01:49:05.772Z,71.40
2018-05-04T01:51:33.899Z,71.40
2018-05-04T01:54:02.043Z,71.60
2018-05-04T01:56:30.157Z,71.60
2018-05-04T01:58:58.354Z,71.30
2018-05-04T02:01:27.235Z,71.50
2018-05-04T02:03:55.385Z,71.40
2018-05-04T02:06:23.699Z,71.20
2018-05-04T02:08:51.840Z,71.30
2018-05-04T02:11:20.735Z,71.50
2018-05-04T02:13:49.734Z,71.70
2018-05-04T02:16:18.677Z,71.90
2018-05-04T02:18:46.896Z,71.90
2018-05-04T02:21:15.047Z,72.00
2018-05-04T02:23:43.186Z,72.60
2018-05-04T02:26:11.414Z,72.60
2018-05-04T02:28:39.575Z,72.30
2018-05-04T02:31:07.731Z,72.40
2018-05-04T02:33:35.935Z,72.20
2018-05-04T02:36:04.824Z,72.40
2018-05-04T02:38:33.804Z,72.20
2018-05-04T02:41:02.703Z,72.20
2018-05-04T02:43:31.639Z,72.10
2018-05-04T02:45:59.863Z,72.10
2018-05-04T02:48:28.777Z,72.20
2018-05-04T02:50:57.015Z,72.10
2018-05-04T02:53:25.172Z,72.30
2018-05-04T02:55:53.300Z,72.60
2018-05-04T02:58:21.436Z,72.10
2018-05-04T03:00:50.447Z,72.10
2018-05-04T03:03:18.607Z,72.00
2018-05-04T03:05:47.518Z,72.50
2018-05-04T03:08:15.673Z,72.40
2018-05-04T03:10:44.651Z,72.60
2018-05-04T03:13:13.555Z,72.40
2018-05-04T03:15:41.686Z,72.40
2018-05-04T03:18:09.839Z,72.40
2018-05-04T03:20:37.959Z,72.00
2018-05-04T03:23:06.898Z,71.60
2018-05-04T03:25:35.038Z,71.40
2018-05-04T03:28:03.180Z,71.30
2018-05-04T03:30:31.328Z,71.40
2018-05-04T03:32:59.456Z,71.30
2018-05-04T03:35:28.486Z,71.50
2018-05-04T03:37:56.618Z,71.60
2018-05-04T03:40:24.767Z,72.00
2018-05-04T03:42:53.865Z,71.80
2018-05-04T03:45:21.906Z,71.70
2018-05-04T03:47:50.078Z,72.10
2018-05-04T03:50:18.215Z,71.60
2018-05-04T03:52:46.342Z,71.80
2018-05-04T03:55:15.274Z,71.80
2018-05-04T03:57:55.408Z,71.70
2018-05-04T04:00:36.403Z,71.90
2018-05-04T04:03:16.512Z,72.20
2018-05-04T04:05:45.420Z,71.60
2018-05-04T04:08:13.575Z,71.50
2018-05-04T04:10:42.487Z,72.10
2018-05-04T04:13:10.623Z,72.10
2018-05-04T04:15:38.784Z,72.20
2018-05-04T04:18:07.012Z,71.60
2018-05-04T04:20:35.162Z,73.10
2018-05-04T04:23:03.322Z,72.20
2018-05-04T04:25:32.351Z,72.00
2018-05-04T04:28:00.498Z,71.90
2018-05-04T04:30:29.462Z,72.20
2018-05-04T04:32:57.600Z,72.20
2018-05-04T04:35:25.827Z,72.40
2018-05-04T04:37:54.723Z,72.50
2018-05-04T04:40:23.646Z,72.60
2018-05-04T04:42:51.835Z,72.60
2018-05-04T04:45:20.000Z,72.60
2018-05-04T04:47:48.135Z,72.80
2018-05-04T04:50:17.056Z,73.10
2018-05-04T04:52:45.189Z,73.10
2018-05-04T04:55:14.193Z,73.70
2018-05-04T04:57:43.184Z,73.30
2018-05-04T05:00:12.084Z,73.30
2018-05-04T05:02:40.263Z,73.30
2018-05-04T05:05:08.413Z,73.00
2018-05-04T05:07:37.310Z,73.10
2018-05-04T05:10:05.470Z,73.10
2018-05-04T05:12:34.462Z,73.20
2018-05-04T05:15:03.463Z,73.60
2018-05-04T05:17:31.656Z,73.60
2018-05-04T05:19:59.790Z,73.50
2018-05-04T05:22:28.704Z,73.70
2018-05-04T05:24:56.996Z,73.70
2018-05-04T05:27:25.132Z,74.30
2018-05-04T05:29:54.044Z,74.10
2018-05-04T05:32:22.250Z,74.00
2018-05-04T05:34:50.380Z,74.20
2018-05-04T05:37:19.361Z,74.40
2018-05-04T05:39:48.971Z,74.80
2018-05-04T05:42:17.942Z,74.30
2018-05-04T05:44:46.124Z,74.30
2018-05-04T05:47:15.030Z,74.10
2018-05-04T05:49:44.005Z,74.00
2018-05-04T05:52:12.161Z,74.10
2018-05-04T05:54:40.433Z,74.10
2018-05-04T05:57:09.291Z,74.90
2018-05-04T05:59:37.448Z,74.80
2018-05-04T06:02:05.605Z,75.00
2018-05-04T06:04:33.763Z,75.10
2018-05-04T06:07:02.764Z,75.30
2018-05-04T06:09:31.915Z,75.20
2018-05-04T06:12:00.160Z,75.10
2018-05-04T06:14:28.304Z,74.60
2018-05-04T06:16:56.448Z,74.60
2018-05-04T06:19:24.611Z,74.70
2018-05-04T06:21:52.746Z,74.40
2018-05-04T06:24:20.890Z,73.70
2018-05-04T06:26:49.803Z,73.00
2018-05-04T06:29:17.944Z,73.00
2018-05-04T06:31:46.949Z,73.10
2018-05-04T06:34:15.095Z,73.00
2018-05-04T06:36:44.013Z,73.80
2018-05-04T06:39:12.208Z,73.80
2018-05-04T06:41:40.331Z,73.40
2018-05-04T06:44:08.495Z,73.00
2018-05-04T06:46:36.690Z,72.90
2018-05-04T06:49:04.873Z,73.20
2018-05-04T06:51:33.037Z,72.60
2018-05-04T06:54:01.942Z,72.60
2018-05-04T06:56:30.081Z,72.50
2018-05-04T06:58:58.307Z,72.30
2018-05-04T07:01:26.440Z,72.00
2018-05-04T07:03:55.340Z,72.00
2018-05-04T07:06:26.258Z,71.50
2018-05-04T07:08:54.477Z,71.50
2018-05-04T07:11:22.617Z,70.90
2018-05-04T07:13:50.765Z,70.90
2018-05-04T07:16:18.876Z,70.40
2018-05-04T07:18:47.002Z,69.80
2018-05-04T07:21:15.152Z,70.10
2018-05-04T07:23:43.285Z,69.90
2018-05-04T07:26:11.441Z,70.10
2018-05-04T07:28:39.599Z,69.40
2018-05-04T07:31:07.709Z,69.60
2018-05-04T07:33:35.852Z,69.60
2018-05-04T07:36:04.930Z,69.90
2018-05-04T07:38:33.028Z,69.40
2018-05-04T07:41:01.203Z,69.80
2018-05-04T07:43:30.096Z,69.70
2018-05-04T07:45:58.237Z,70.30
2018-05-04T07:48:26.418Z,69.00
2018-05-04T07:50:55.324Z,68.40
2018-05-04T07:53:23.524Z,68.40
2018-05-04T07:55:51.651Z,68.10
2018-05-04T07:58:20.567Z,68.30
2018-05-04T08:00:48.688Z,68.30
2018-05-04T08:03:16.844Z,68.40
2018-05-04T08:05:44.994Z,68.20
2018-05-04T08:08:13.136Z,67.60
2018-05-04T08:10:42.238Z,67.40
2018-05-04T08:13:11.134Z,67.60
2018-05-04T08:15:39.283Z,67.60
2018-05-04T08:18:08.191Z,67.80
2018-05-04T08:20:36.323Z,67.80
2018-05-04T08:23:04.471Z,67.30
2018-05-04T08:25:32.642Z,67.30
2018-05-04T08:28:00.787Z,67.50
2018-05-04T08:30:28.937Z,67.60
2018-05-04T08:32:57.936Z,67.80
2018-05-04T08:35:26.941Z,67.80
2018-05-04T08:37:55.019Z,67.80
2018-05-04T08:40:23.169Z,68.00
2018-05-04T08:42:52.188Z,68.40
2018-05-04T08:45:20.251Z,68.30
2018-05-04T08:47:48.402Z,68.50
2018-05-04T08:50:17.298Z,69.20
2018-05-04T08:52:45.476Z,69.10
2018-05-04T08:55:13.629Z,69.20
2018-05-04T08:57:42.547Z,70.00
2018-05-04T09:00:10.673Z,70.00
2018-05-04T09:02:38.853Z,69.90
2018-05-04T09:05:07.149Z,70.50
2018-05-04T09:07:35.985Z,70.90
2018-05-04T09:10:04.138Z,70.90
2018-05-04T09:12:32.246Z,70.30
2018-05-04T09:15:00.426Z,70.30
2018-05-04T09:17:30.084Z,70.70
2018-05-04T09:19:58.236Z,70.70
2018-05-04T09:22:27.156Z,70.70
2018-05-04T09:24:55.292Z,70.70
2018-05-04T09:27:24.280Z,70.80
2018-05-04T09:29:53.183Z,70.90
2018-05-04T09:32:21.343Z,70.80
2018-05-04T09:34:50.238Z,71.40
2018-05-04T09:37:18.431Z,71.40
2018-05-04T09:39:46.530Z,71.60
2018-05-04T09:42:14.760Z,72.60
2018-05-04T09:44:44.605Z,73.10
2018-05-04T09:47:12.735Z,73.10
2018-05-04T09:49:41.647Z,74.10
2018-05-04T09:52:09.781Z,74.10
2018-05-04T09:54:38.123Z,74.60
2018-05-04T09:57:06.245Z,75.00
2018-05-04T09:59:35.171Z,74.80
2018-05-04T10:02:03.297Z,74.80
2018-05-04T10:04:32.309Z,74.80
2018-05-04T10:07:00.443Z,74.80
2018-05-04T10:09:28.667Z,74.50
2018-05-04T10:11:56.823Z,75.70
2018-05-04T10:14:24.987Z,75.00
2018-05-04T10:16:53.174Z,75.20
2018-05-04T10:19:21.331Z,75.30
2018-05-04T10:21:50.268Z,75.70
2018-05-04T10:24:18.414Z,75.70
2018-05-04T10:26:46.564Z,76.00
2018-05-04T10:29:15.466Z,76.20
2018-05-04T10:31:43.624Z,76.10
2018-05-04T10:34:12.557Z,76.40
2018-05-04T10:36:40.688Z,76.40
2018-05-04T10:39:09.711Z,77.00
2018-05-04T10:41:37.852Z,77.00
2018-05-04T10:44:06.036Z,77.20
2018-05-04T10:46:34.934Z,77.20
2018-05-04T10:49:03.104Z,77.20
2018-05-04T10:51:31.223Z,77.20
2018-05-04T10:53:59.397Z,77.00
2018-05-04T10:56:27.601Z,76.80
2018-05-04T11:00:09.067Z,76.10
2018-05-04T11:02:38.012Z,75.70
2018-05-04T11:05:06.979Z,75.40
2018-05-04T11:07:35.959Z,75.30
2018-05-04T11:10:04.999Z,74.50
2018-05-04T11:12:33.869Z,74.40
2018-05-04T11:15:02.795Z,74.10
2018-05-04T11:17:31.730Z,73.50
2018-05-04T11:20:00.661Z,73.00
2018-05-04T11:22:30.364Z,72.90
2018-05-04T11:24:59.278Z,72.90
2018-05-04T11:27:28.207Z,73.10
2018-05-04T11:29:57.134Z,73.60
2018-05-04T11:32:26.920Z,73.00
2018-05-04T11:34:55.837Z,72.90
2018-05-04T11:37:25.607Z,72.50
2018-05-04T11:39:54.596Z,72.30
2018-05-04T11:42:23.494Z,72.70
2018-05-04T11:44:52.404Z,72.60
2018-05-04T11:47:21.290Z,72.30
2018-05-04T11:49:50.178Z,71.90
2018-05-04T11:52:19.158Z,72.80
2018-05-04T11:54:48.058Z,71.70
2018-05-04T11:57:16.963Z,71.20
2018-05-04T11:59:45.912Z,71.30
2018-05-04T12:02:14.923Z,71.00
2018-05-04T12:04:43.843Z,71.00
2018-05-04T12:07:13.942Z,70.70
2018-05-04T12:09:43.772Z,70.70
2018-05-04T12:12:13.437Z,70.60
2018-05-04T12:14:42.439Z,70.50
2018-05-04T12:17:11.318Z,70.20
2018-05-04T12:19:40.248Z,69.20
2018-05-04T12:22:09.171Z,69.40
2018-05-04T12:24:38.108Z,69.30
2018-05-04T12:27:07.009Z,69.40
2018-05-04T12:29:35.947Z,69.70
2018-05-04T12:32:04.868Z,70.10
2018-05-04T12:34:33.949Z,69.90
2018-05-04T12:37:02.835Z,70.30
2018-05-04T12:39:31.765Z,69.80
2018-05-04T12:42:00.694Z,69.10
2018-05-04T12:44:29.606Z,69.50
2018-05-04T12:46:58.558Z,69.20
2018-05-04T12:49:28.207Z,68.80
2018-05-04T12:51:57.210Z,68.80
2018-05-04T12:54:26.097Z,69.60
2018-05-04T12:56:54.990Z,68.90
2018-05-04T12:59:23.899Z,68.70
2018-05-04T13:01:52.824Z,68.60
2018-05-04T13:04:22.628Z,69.10
2018-05-04T13:06:51.480Z,69.00
2018-05-04T13:09:20.380Z,68.10
2018-05-04T13:11:49.352Z,67.90
2018-05-04T13:14:18.267Z,68.40
2018-05-04T13:16:47.156Z,67.80
2018-05-04T13:19:16.829Z,65.90
2018-05-04T13:21:45.747Z,65.90
2018-05-04T13:24:14.635Z,67.20
2018-05-04T13:26:43.523Z,65.70
2018-05-04T13:29:12.475Z,65.90
2018-05-04T13:31:41.396Z,65.30
2018-05-04T13:34:10.291Z,66.00
2018-05-04T13:36:39.209Z,65.30
2018-05-04T13:39:08.894Z,66.30
2018-05-04T13:41:37.816Z,65.60
2018-05-04T13:44:07.467Z,66.80
2018-05-04T13:46:36.340Z,66.90
2018-05-04T13:49:05.263Z,66.80
2018-05-04T13:51:34.198Z,67.40
2018-05-04T13:54:03.071Z,67.20
2018-05-04T13:56:32.774Z,67.00
2018-05-04T13:59:02.464Z,66.70
2018-05-04T14:01:32.061Z,66.70
2018-05-04T14:04:01.955Z,63.90
2018-05-04T14:06:30.888Z,63.90
2018-05-04T14:08:59.804Z,64.70
2018-05-04T14:11:28.731Z,61.60
2018-05-04T14:13:57.650Z,60.80
2018-05-04T14:16:27.354Z,59.30
2018-05-04T14:18:56.228Z,59.20
2018-05-04T14:21:25.167Z,58.20
2018-05-04T14:23:54.072Z,59.10
2018-05-04T14:26:23.247Z,59.40
2018-05-04T14:28:52.920Z,59.50
2018-05-04T14:31:21.813Z,58.90
2018-05-04T14:33:50.750Z,60.00
2018-05-04T14:36:19.643Z,60.00
2018-05-04T14:38:48.606Z,59.60
2018-05-04T14:41:18.264Z,59.70
2018-05-04T14:43:47.187Z,59.70
2018-05-04T14:46:17.614Z,57.60
2018-05-04T14:48:46.490Z,57.60
2018-05-04T14:51:15.391Z,56.60
2018-05-04T14:53:45.143Z,54.90
2018-05-04T14:56:14.038Z,54.90
2018-05-04T14:58:42.966Z,54.10
2018-05-04T15:01:11.941Z,52.70
2018-05-04T15:03:40.862Z,49.50
2018-05-04T15:06:09.759Z,46.30
2018-05-04T15:08:39.622Z,43.80
2018-05-04T15:11:08.595Z,43.70
2018-05-04T15:13:37.565Z,43.50
2018-05-04T15:16:07.334Z,44.40
2018-05-04T15:18:36.967Z,44.30
2018-05-04T15:21:06.649Z,44.20
2018-05-04T15:23:35.528Z,44.10
2018-05-04T15:26:04.422Z,43.00
2018-05-04T15:28:33.332Z,42.50
2018-05-04T15:31:02.226Z,42.30
2018-05-04T15:33:31.933Z,37.50
2018-05-04T15:36:00.847Z,37.30
2018-05-04T15:38:29.766Z,35.40
2018-05-04T15:40:58.662Z,33.90
2018-05-04T15:43:27.546Z,32.90
2018-05-04T15:45:56.497Z,33.40
2018-05-04T15:48:31.679Z,32.60
2018-05-04T15:51:06.191Z,32.50
2018-05-04T15:53:35.063Z,32.80
2018-05-04T15:56:04.000Z,34.10
2018-05-04T15:58:32.893Z,35.10
2018-05-04T16:01:01.842Z,36.90
2018-05-04T16:03:30.779Z,39.20
2018-05-04T16:06:00.441Z,41.50
2018-05-04T16:08:29.378Z,41.90
2018-05-04T16:10:58.367Z,42.40
2018-05-04T16:13:27.277Z,42.00
2018-05-04T16:15:56.973Z,42.70
2018-05-04T16:18:25.902Z,42.70
2018-05-04T16:20:54.808Z,43.90
2018-05-04T16:23:23.719Z,45.80
2018-05-04T16:25:52.635Z,47.30
2018-05-04T16:28:21.542Z,49.20
2018-05-04T16:30:51.221Z,53.50
2018-05-04T16:33:20.125Z,53.40
2018-05-04T16:35:49.797Z,55.70
2018-05-04T16:38:18.723Z,55.70
2018-05-04T16:40:48.414Z,57.90
2018-05-04T16:43:17.305Z,57.90
2018-05-04T16:45:46.991Z,59.70
2018-05-04T16:48:23.136Z,59.80
2018-05-04T16:50:52.044Z,59.70
2018-05-04T16:53:21.711Z,59.40
2018-05-04T16:55:50.604Z,59.40
2018-05-04T16:58:19.569Z,59.20
2018-05-04T17:00:49.244Z,59.50
2018-05-04T17:03:18.204Z,59.40
2018-05-04T17:05:47.097Z,59.20
2018-05-04T17:08:15.991Z,59.80
2018-05-04T17:10:44.891Z,59.60
2018-05-04T17:13:13.963Z,59.80
2018-05-04T17:15:42.893Z,59.80
2018-05-04T17:18:11.785Z,60.30
2018-05-04T17:20:40.702Z,60.50
2018-05-04T17:23:10.355Z,61.20
2018-05-04T17:25:39.245Z,61.20
2018-05-04T17:28:08.186Z,61.10
2018-05-04T17:30:37.089Z,61.30
2018-05-04T17:33:06.134Z,61.60
2018-05-04T17:35:35.124Z,61.90
2018-05-04T17:38:04.153Z,62.30
2018-05-04T17:40:34.083Z,64.30
2018-05-04T17:43:02.842Z,63.50
2018-05-04T17:45:32.544Z,64.60
2018-05-04T17:48:03.119Z,64.70
2018-05-04T17:50:32.064Z,64.70
2018-05-04T17:53:00.993Z,64.90
2018-05-04T17:55:29.923Z,65.60
2018-05-04T17:57:58.893Z,66.00
2018-05-04T18:00:27.792Z,66.10
2018-05-04T18:02:56.783Z,66.60
2018-05-04T18:05:25.684Z,66.90
2018-05-04T18:07:54.656Z,67.30
2018-05-04T18:10:23.620Z,68.00
2018-05-04T18:12:52.467Z,68.70
2018-05-04T18:15:22.252Z,69.00
2018-05-04T18:17:51.217Z,69.70
2018-05-04T18:20:20.119Z,70.10
2018-05-04T18:22:49.028Z,70.40
2018-05-04T18:25:17.937Z,70.30
2018-05-04T18:27:47.651Z,70.80
2018-05-04T18:30:16.553Z,70.80
2018-05-04T18:32:45.498Z,71.10
2018-05-04T18:35:14.402Z,71.40
2018-05-04T18:37:43.303Z,72.00
2018-05-04T18:40:12.251Z,72.10
2018-05-04T18:42:41.175Z,72.80
2018-05-04T18:45:10.132Z,72.70
2018-05-04T18:47:39.049Z,72.50
2018-05-04T18:50:08.035Z,72.80
2018-05-04T18:52:36.953Z,73.00
2018-05-04T18:55:06.634Z,73.00
2018-05-04T18:57:35.664Z,73.00
2018-05-04T19:00:04.683Z,73.30
2018-05-04T19:02:39.458Z,73.20
2018-05-04T19:05:08.366Z,73.40
2018-05-04T19:07:37.305Z,73.30
2018-05-04T19:10:06.214Z,73.60
2018-05-04T19:12:35.142Z,73.50
2018-05-04T19:15:04.121Z,73.50
2018-05-04T19:17:33.115Z,73.60
2018-05-04T19:20:02.041Z,73.60
2018-05-04T19:22:30.985Z,73.90
2018-05-04T19:24:59.877Z,74.00
2018-05-04T19:27:28.849Z,74.00
2018-05-04T19:29:57.754Z,74.00
2018-05-04T19:32:26.692Z,74.10
2018-05-04T19:34:55.588Z,73.80
2018-05-04T19:37:24.517Z,74.00
2018-05-04T19:39:53.406Z,73.90
2018-05-04T19:42:22.281Z,73.90
2018-05-04T19:44:51.263Z,73.80
2018-05-04T19:47:20.207Z,73.90
2018-05-04T19:49:49.934Z,74.40
2018-05-04T19:52:18.849Z,74.40
2018-05-04T19:54:47.764Z,74.20
2018-05-04T19:57:16.687Z,74.50
2018-05-04T19:59:46.387Z,74.70
2018-05-04T20:02:16.063Z,75.40
2018-05-04T20:04:44.952Z,74.70
2018-05-04T20:07:13.903Z,74.70
2018-05-04T20:09:42.849Z,74.80
2018-05-04T20:12:11.744Z,74.80
2018-05-04T20:14:40.713Z,75.00
2018-05-04T20:17:09.628Z,75.00
2018-05-04T20:19:38.541Z,75.20
2018-05-04T20:22:08.282Z,75.30
2018-05-04T20:24:37.216Z,75.20
2018-05-04T20:27:07.650Z,75.20
2018-05-04T20:29:36.643Z,75.20
2018-05-04T20:32:06.495Z,75.40
2018-05-04T20:34:35.479Z,75.30
2018-05-04T20:37:04.430Z,75.60
2018-05-04T20:39:33.357Z,75.60
2018-05-04T20:42:02.316Z,75.90
2018-05-04T20:44:32.007Z,75.90
2018-05-04T20:47:00.976Z,76.30
2018-05-04T20:49:29.878Z,76.40
2018-05-04T20:51:58.953Z,77.00
2018-05-04T20:54:27.828Z,77.00
2018-05-04T20:56:56.763Z,77.20
2018-05-04T20:59:27.192Z,77.30
2018-05-04T21:01:57.718Z,77.30
2018-05-04T21:04:26.678Z,77.30
2018-05-04T21:06:55.576Z,77.30
2018-05-04T21:09:24.513Z,77.40
2018-05-04T21:11:54.189Z,77.60
2018-05-04T21:14:23.097Z,77.50
2018-05-04T21:16:52.086Z,77.70
2018-05-04T21:19:20.962Z,77.80
2018-05-04T21:21:49.929Z,77.80
2018-05-04T21:24:18.848Z,77.80
2018-05-04T21:26:47.748Z,78.40
2018-05-04T21:29:17.412Z,78.80
2018-05-04T21:31:46.324Z,78.70
2018-05-04T21:34:15.258Z,78.90
2018-05-04T21:36:44.167Z,79.40
2018-05-04T21:39:13.058Z,78.70
2018-05-04T21:41:41.945Z,78.90
2018-05-04T21:44:10.852Z,79.00
2018-05-04T21:46:39.802Z,79.00
2018-05-04T21:49:08.760Z,79.10
2018-05-04T21:51:37.658Z,79.20
2018-05-04T21:54:07.348Z,79.40
2018-05-04T21:56:36.230Z,79.30
2018-05-04T21:59:05.241Z,79.20
2018-05-04T22:01:34.825Z,79.50
2018-05-04T22:04:03.722Z,79.50
2018-05-04T22:06:32.621Z,79.40
2018-05-04T22:09:02.283Z,79.90
2018-05-04T22:11:31.284Z,79.50
2018-05-04T22:14:00.194Z,79.80
2018-05-04T22:16:29.087Z,79.80
2018-05-04T22:18:58.064Z,79.70
2018-05-04T22:21:26.957Z,79.80
2018-05-04T22:23:55.843Z,79.70
2018-05-04T22:26:25.128Z,80.00
2018-05-04T22:28:53.938Z,80.10
2018-05-04T22:31:24.367Z,80.10
2018-05-04T22:33:53.260Z,80.00
2018-05-04T22:36:22.184Z,80.00
2018-05-04T22:38:51.094Z,79.90
2018-05-04T22:41:20.009Z,80.00
2018-05-04T22:43:48.950Z,80.10
2018-05-04T22:46:18.595Z,80.10
2018-05-04T22:48:47.500Z,80.00
2018-05-04T22:51:16.419Z,80.10
2018-05-04T22:53:46.082Z,80.30
2018-05-04T22:56:15.088Z,80.20
2018-05-04T22:58:43.962Z,80.20
2018-05-04T23:01:12.976Z,80.30
2018-05-04T23:03:41.949Z,80.50
2018-05-04T23:06:10.849Z,80.40
2018-05-04T23:08:39.821Z,80.50
2018-05-04T23:11:08.708Z,80.40
2018-05-04T23:13:37.634Z,80.30
2018-05-04T23:16:06.533Z,80.20
2018-05-04T23:18:36.210Z,79.50
2018-05-04T23:21:05.207Z,79.40
2018-05-04T23:23:33.990Z,79.10
2018-05-04T23:26:02.907Z,78.60
2018-05-04T23:28:31.803Z,78.50
2018-05-04T23:31:00.675Z,78.30
2018-05-04T23:33:30.357Z,77.40
2018-05-04T23:35:59.275Z,77.40
2018-05-04T23:38:28.175Z,77.30
2018-05-04T23:40:57.849Z,76.50
2018-05-04T23:43:26.831Z,76.50
2018-05-04T23:45:55.740Z,76.30
2018-05-04T23:48:24.704Z,76.20
2018-05-04T23:50:53.613Z,75.90
2018-05-04T23:53:22.592Z,76.00
2018-05-04T23:55:51.492Z,75.80
2018-05-04T23:58:20.391Z,75.60
